sensor_id;sensor_type;location;lat;lon;timestamp;pressure;altitude;pressure_sealevel;temperature;humidity
48630;BME280;34426;52.180;4.462;2023-04-06T00:00:14;101865.75;;;6.51;65.63
48630;BME280;34426;52.180;4.462;2023-04-06T00:02:40;101864.72;;;6.39;65.57
48630;BME280;34426;52.180;4.462;2023-04-06T00:05:05;101861.72;;;6.34;65.78
48630;BME280;34426;52.180;4.462;2023-04-06T00:07:31;101855.09;;;6.28;65.05
48630;BME280;34426;52.180;4.462;2023-04-06T00:09:56;101852.53;;;6.27;64.73
48630;BME280;34426;52.180;4.462;2023-04-06T00:12:23;101847.19;;;6.32;62.15
48630;BME280;34426;52.180;4.462;2023-04-06T00:14:51;101852.13;;;6.17;63.04
48630;BME280;34426;52.180;4.462;2023-04-06T00:17:17;101847.63;;;6.29;62.51
48630;BME280;34426;52.180;4.462;2023-04-06T00:19:42;101842.06;;;6.29;62.10
48630;BME280;34426;52.180;4.462;2023-04-06T00:22:08;101839.94;;;6.31;62.01
48630;BME280;34426;52.180;4.462;2023-04-06T00:24:33;101833.94;;;6.34;60.85
48630;BME280;34426;52.180;4.462;2023-04-06T00:26:59;101836.50;;;6.29;62.70
48630;BME280;34426;52.180;4.462;2023-04-06T00:29:26;101831.59;;;6.24;61.93
48630;BME280;34426;52.180;4.462;2023-04-06T00:31:51;101827.97;;;6.24;61.90
48630;BME280;34426;52.180;4.462;2023-04-06T00:34:17;101829.69;;;6.25;62.49
48630;BME280;34426;52.180;4.462;2023-04-06T00:36:42;101823.69;;;6.28;61.31
48630;BME280;34426;52.180;4.462;2023-04-06T00:39:08;101816.44;;;6.20;60.81
48630;BME280;34426;52.180;4.462;2023-04-06T00:41:33;101816.00;;;6.17;61.79
48630;BME280;34426;52.180;4.462;2023-04-06T00:43:59;101805.75;;;6.11;61.92
48630;BME280;34426;52.180;4.462;2023-04-06T00:46:25;101816.00;;;6.17;61.87
48630;BME280;34426;52.180;4.462;2023-04-06T00:48:51;101810.66;;;6.22;61.43
48630;BME280;34426;52.180;4.462;2023-04-06T00:51:16;101811.72;;;6.21;58.87
48630;BME280;34426;52.180;4.462;2023-04-06T00:53:42;101806.59;;;6.31;58.95
48630;BME280;34426;52.180;4.462;2023-04-06T00:56:07;101800.59;;;6.34;60.76
48630;BME280;34426;52.180;4.462;2023-04-06T00:58:33;101801.25;;;6.36;60.33
48630;BME280;34426;52.180;4.462;2023-04-06T01:00:59;101795.03;;;6.34;59.86
48630;BME280;34426;52.180;4.462;2023-04-06T01:03:25;101786.50;;;6.29;59.15
48630;BME280;34426;52.180;4.462;2023-04-06T01:05:51;101789.06;;;6.37;58.85
48630;BME280;34426;52.180;4.462;2023-04-06T01:08:17;101787.75;;;6.40;59.56
48630;BME280;34426;52.180;4.462;2023-04-06T01:10:42;101772.81;;;6.34;58.81
48630;BME280;34426;52.180;4.462;2023-04-06T01:13:08;101772.81;;;6.41;59.55
48630;BME280;34426;52.180;4.462;2023-04-06T01:15:33;101773.63;;;6.48;59.53
48630;BME280;34426;52.180;4.462;2023-04-06T01:18:00;101770.25;;;6.39;59.42
48630;BME280;34426;52.180;4.462;2023-04-06T01:20:27;101760.84;;;6.33;59.27
48630;BME280;34426;52.180;4.462;2023-04-06T01:22:54;101759.09;;;6.46;60.26
48630;BME280;34426;52.180;4.462;2023-04-06T01:25:20;101759.31;;;6.44;59.44
48630;BME280;34426;52.180;4.462;2023-04-06T01:27:45;101751.88;;;6.38;60.62
48630;BME280;34426;52.180;4.462;2023-04-06T01:30:11;101760.00;;;6.33;59.93
48630;BME280;34426;52.180;4.462;2023-04-06T01:32:36;101756.78;;;6.43;60.30
48630;BME280;34426;52.180;4.462;2023-04-06T01:35:02;101752.69;;;6.45;59.98
48630;BME280;34426;52.180;4.462;2023-04-06T01:37:27;101743.72;;;6.43;59.06
48630;BME280;34426;52.180;4.462;2023-04-06T01:39:54;101744.16;;;6.40;59.22
48630;BME280;34426;52.180;4.462;2023-04-06T01:42:20;101730.72;;;6.37;58.24
48630;BME280;34426;52.180;4.462;2023-04-06T01:44:45;101733.03;;;6.47;59.63
48630;BME280;34426;52.180;4.462;2023-04-06T01:47:11;101736.91;;;6.39;58.94
48630;BME280;34426;52.180;4.462;2023-04-06T01:49:36;101721.94;;;6.40;59.65
48630;BME280;34426;52.180;4.462;2023-04-06T01:52:02;101727.69;;;6.45;59.19
48630;BME280;34426;52.180;4.462;2023-04-06T01:54:27;101729.19;;;6.41;59.06
48630;BME280;34426;52.180;4.462;2023-04-06T01:56:54;101721.09;;;6.40;58.88
48630;BME280;34426;52.180;4.462;2023-04-06T01:59:20;101721.94;;;6.40;58.56
48630;BME280;34426;52.180;4.462;2023-04-06T02:01:45;101715.94;;;6.43;58.47
48630;BME280;34426;52.180;4.462;2023-04-06T02:04:11;101707.81;;;6.42;58.28
48630;BME280;34426;52.180;4.462;2023-04-06T02:06:36;101706.13;;;6.34;59.36
48630;BME280;34426;52.180;4.462;2023-04-06T02:09:02;101700.78;;;6.39;59.74
48630;BME280;34426;52.180;4.462;2023-04-06T02:11:27;101702.91;;;6.37;58.73
48630;BME280;34426;52.180;4.462;2023-04-06T02:13:55;101702.28;;;6.35;59.29
48630;BME280;34426;52.180;4.462;2023-04-06T02:16:20;101692.25;;;6.34;58.87
48630;BME280;34426;52.180;4.462;2023-04-06T02:18:46;101694.78;;;6.42;59.65
48630;BME280;34426;52.180;4.462;2023-04-06T02:21:11;101691.81;;;6.37;59.13
48630;BME280;34426;52.180;4.462;2023-04-06T02:23:37;101687.53;;;6.34;59.22
48630;BME280;34426;52.180;4.462;2023-04-06T02:26:02;101694.19;;;6.27;60.55
48630;BME280;34426;52.180;4.462;2023-04-06T02:28:28;101696.31;;;6.31;59.69
48630;BME280;34426;52.180;4.462;2023-04-06T02:30:55;101692.03;;;6.36;59.91
48630;BME280;34426;52.180;4.462;2023-04-06T02:33:20;101689.69;;;6.32;60.59
48630;BME280;34426;52.180;4.462;2023-04-06T02:35:46;101687.75;;;6.33;60.36
48630;BME280;34426;52.180;4.462;2023-04-06T02:38:11;101679.00;;;6.36;59.43
48630;BME280;34426;52.180;4.462;2023-04-06T02:40:36;101682.88;;;6.22;60.21
48630;BME280;34426;52.180;4.462;2023-04-06T02:43:02;101674.97;;;6.25;60.46
48630;BME280;34426;52.180;4.462;2023-04-06T02:45:27;101680.09;;;6.22;61.09
48630;BME280;34426;52.180;4.462;2023-04-06T02:47:54;101671.97;;;6.27;60.78
48630;BME280;34426;52.180;4.462;2023-04-06T02:50:20;101677.09;;;6.30;60.81
48630;BME280;34426;52.180;4.462;2023-04-06T02:52:45;101676.44;;;6.28;60.51
48630;BME280;34426;52.180;4.462;2023-04-06T02:55:11;101671.53;;;6.30;60.78
48630;BME280;34426;52.180;4.462;2023-04-06T02:57:36;101667.25;;;6.27;60.89
48630;BME280;34426;52.180;4.462;2023-04-06T03:00:02;101657.84;;;6.28;61.55
48630;BME280;34426;52.180;4.462;2023-04-06T03:02:28;101669.38;;;6.32;60.59
48630;BME280;34426;52.180;4.462;2023-04-06T03:04:55;101660.03;;;6.20;61.27
48630;BME280;34426;52.180;4.462;2023-04-06T03:07:20;101650.63;;;6.21;61.42
48630;BME280;34426;52.180;4.462;2023-04-06T03:09:46;101653.38;;;6.27;61.31
48630;BME280;34426;52.180;4.462;2023-04-06T03:12:11;101651.03;;;6.24;62.08
48630;BME280;34426;52.180;4.462;2023-04-06T03:14:36;101653.16;;;6.29;61.64
48630;BME280;34426;52.180;4.462;2023-04-06T03:17:02;101647.19;;;6.25;62.20
48630;BME280;34426;52.180;4.462;2023-04-06T03:19:27;101653.81;;;6.24;62.05
48630;BME280;34426;52.180;4.462;2023-04-06T03:21:54;101645.94;;;6.15;61.87
48630;BME280;34426;52.180;4.462;2023-04-06T03:24:20;101648.91;;;6.20;62.94
48630;BME280;34426;52.180;4.462;2023-04-06T03:26:45;101642.72;;;6.18;62.29
48630;BME280;34426;52.180;4.462;2023-04-06T03:29:11;101637.38;;;6.23;63.52
48630;BME280;34426;52.180;4.462;2023-04-06T03:31:36;101639.06;;;6.24;64.08
48630;BME280;34426;52.180;4.462;2023-04-06T03:34:01;101636.09;;;6.19;63.03
48630;BME280;34426;52.180;4.462;2023-04-06T03:36:27;101633.53;;;6.17;63.15
48630;BME280;34426;52.180;4.462;2023-04-06T03:38:54;101638.25;;;6.17;63.04
48630;BME280;34426;52.180;4.462;2023-04-06T03:41:19;101631.63;;;6.18;63.03
48630;BME280;34426;52.180;4.462;2023-04-06T03:43:45;101625.00;;;6.19;63.66
48630;BME280;34426;52.180;4.462;2023-04-06T03:46:10;101627.13;;;6.17;63.68
48630;BME280;34426;52.180;4.462;2023-04-06T03:48:36;101626.69;;;6.20;63.28
48630;BME280;34426;52.180;4.462;2023-04-06T03:51:01;101628.84;;;6.18;63.92
48630;BME280;34426;52.180;4.462;2023-04-06T03:53:27;101621.53;;;6.23;63.32
48630;BME280;34426;52.180;4.462;2023-04-06T03:55:53;101615.81;;;6.18;63.22
48630;BME280;34426;52.180;4.462;2023-04-06T03:58:19;101620.06;;;6.21;64.41
48630;BME280;34426;52.180;4.462;2023-04-06T04:00:44;101613.25;;;6.17;63.60
48630;BME280;34426;52.180;4.462;2023-04-06T04:03:10;101616.47;;;6.14;64.09
48630;BME280;34426;52.180;4.462;2023-04-06T04:05:35;101616.03;;;6.17;64.18
48630;BME280;34426;52.180;4.462;2023-04-06T04:08:01;101613.88;;;6.19;64.98
48630;BME280;34426;52.180;4.462;2023-04-06T04:10:26;101618.16;;;6.15;65.00
48630;BME280;34426;52.180;4.462;2023-04-06T04:12:53;101623.28;;;6.18;64.17
48630;BME280;34426;52.180;4.462;2023-04-06T04:15:19;101614.50;;;6.21;64.35
48630;BME280;34426;52.180;4.462;2023-04-06T04:17:44;101621.56;;;6.17;65.35
48630;BME280;34426;52.180;4.462;2023-04-06T04:20:10;101607.03;;;6.21;63.50
48630;BME280;34426;52.180;4.462;2023-04-06T04:22:36;101613.66;;;6.20;65.01
48630;BME280;34426;52.180;4.462;2023-04-06T04:25:01;101616.41;;;6.27;64.27
48630;BME280;34426;52.180;4.462;2023-04-06T04:27:27;101609.16;;;6.26;63.27
48630;BME280;34426;52.180;4.462;2023-04-06T04:29:53;101601.88;;;6.25;63.27
48630;BME280;34426;52.180;4.462;2023-04-06T04:32:19;101608.69;;;6.29;62.96
48630;BME280;34426;52.180;4.462;2023-04-06T04:34:44;101604.03;;;6.23;64.27
48630;BME280;34426;52.180;4.462;2023-04-06T04:37:10;101606.19;;;6.21;63.97
48630;BME280;34426;52.180;4.462;2023-04-06T04:39:35;101611.28;;;6.24;64.66
48630;BME280;34426;52.180;4.462;2023-04-06T04:42:01;101613.88;;;6.19;64.23
48630;BME280;34426;52.180;4.462;2023-04-06T04:44:26;101603.59;;;6.26;63.71
48630;BME280;34426;52.180;4.462;2023-04-06T04:46:53;101610.88;;;6.20;63.97
48630;BME280;34426;52.180;4.462;2023-04-06T04:49:18;101611.09;;;6.19;65.65
48630;BME280;34426;52.180;4.462;2023-04-06T04:51:44;101605.75;;;6.24;65.63
48630;BME280;34426;52.180;4.462;2023-04-06T04:54:09;101601.88;;;6.25;64.65
48630;BME280;34426;52.180;4.462;2023-04-06T04:56:35;101600.81;;;6.26;64.87
48630;BME280;34426;52.180;4.462;2023-04-06T04:59:00;101596.31;;;6.31;64.73
48630;BME280;34426;52.180;4.462;2023-04-06T05:01:26;101598.84;;;6.33;64.51
48630;BME280;34426;52.180;4.462;2023-04-06T05:03:53;101608.06;;;6.27;65.18
48630;BME280;34426;52.180;4.462;2023-04-06T05:06:19;101604.41;;;6.33;64.13
48630;BME280;34426;52.180;4.462;2023-04-06T05:08:44;101606.31;;;6.39;64.93
48630;BME280;34426;52.180;4.462;2023-04-06T05:11:10;101597.53;;;6.42;64.66
48630;BME280;34426;52.180;4.462;2023-04-06T05:13:36;101605.41;;;6.45;64.88
48630;BME280;34426;52.180;4.462;2023-04-06T05:16:01;101597.97;;;6.39;65.05
48630;BME280;34426;52.180;4.462;2023-04-06T05:18:27;101598.16;;;6.44;65.53
48630;BME280;34426;52.180;4.462;2023-04-06T05:20:54;101594.31;;;6.45;64.74
48630;BME280;34426;52.180;4.462;2023-04-06T05:23:19;101593.56;;;6.56;64.27
48630;BME280;34426;52.180;4.462;2023-04-06T05:25:47;101592.28;;;6.59;64.39
48630;BME280;34426;52.180;4.462;2023-04-06T05:28:13;101602.09;;;6.61;65.03
48630;BME280;34426;52.180;4.462;2023-04-06T05:30:39;101596.13;;;6.58;64.96
48630;BME280;34426;52.180;4.462;2023-04-06T05:33:04;101597.41;;;6.55;65.73
48630;BME280;34426;52.180;4.462;2023-04-06T05:35:30;101593.75;;;6.61;65.92
48630;BME280;34426;52.180;4.462;2023-04-06T05:37:57;101597.59;;;6.60;66.08
48630;BME280;34426;52.180;4.462;2023-04-06T05:40:22;101597.34;;;6.68;65.54
48630;BME280;34426;52.180;4.462;2023-04-06T05:42:48;101585.78;;;6.72;65.29
48630;BME280;34426;52.180;4.462;2023-04-06T05:45:13;101583.19;;;6.77;65.75
48630;BME280;34426;52.180;4.462;2023-04-06T05:47:39;101587.94;;;6.70;66.31
48630;BME280;34426;52.180;4.462;2023-04-06T05:50:05;101582.94;;;6.78;66.45
48630;BME280;34426;52.180;4.462;2023-04-06T05:52:31;101576.94;;;6.81;66.69
48630;BME280;34426;52.180;4.462;2023-04-06T05:54:58;101584.88;;;6.78;67.13
48630;BME280;34426;52.180;4.462;2023-04-06T05:57:23;101584.38;;;6.87;66.83
48630;BME280;34426;52.180;4.462;2023-04-06T05:59:49;101586.25;;;6.93;66.43
48630;BME280;34426;52.180;4.462;2023-04-06T06:02:14;101590.00;;;7.06;65.95
48630;BME280;34426;52.180;4.462;2023-04-06T06:04:40;101585.06;;;7.08;66.96
48630;BME280;34426;52.180;4.462;2023-04-06T06:07:05;101590.66;;;7.01;66.95
48630;BME280;34426;52.180;4.462;2023-04-06T06:09:31;101592.56;;;7.07;67.03
48630;BME280;34426;52.180;4.462;2023-04-06T06:11:59;101591.94;;;7.05;67.18
48630;BME280;34426;52.180;4.462;2023-04-06T06:14:24;101588.25;;;7.11;67.14
48630;BME280;34426;52.180;4.462;2023-04-06T06:16:50;101579.22;;;7.16;66.70
48630;BME280;34426;52.180;4.462;2023-04-06T06:19:15;101577.28;;;7.16;66.89
48630;BME280;34426;52.180;4.462;2023-04-06T06:21:41;101586.09;;;7.13;68.17
48630;BME280;34426;52.180;4.462;2023-04-06T06:24:07;101581.50;;;7.25;67.51
48630;BME280;34426;52.180;4.462;2023-04-06T06:26:32;101583.19;;;7.26;67.34
48630;BME280;34426;52.180;4.462;2023-04-06T06:28:59;101587.06;;;7.25;67.58
48630;BME280;34426;52.180;4.462;2023-04-06T06:31:25;101586.59;;;7.28;67.89
48630;BME280;34426;52.180;4.462;2023-04-06T06:33:50;101584.75;;;7.41;67.64
48630;BME280;34426;52.180;4.462;2023-04-06T06:36:16;101595.13;;;7.33;68.06
48630;BME280;34426;52.180;4.462;2023-04-06T06:38:41;101593.72;;;7.43;68.04
48630;BME280;34426;52.180;4.462;2023-04-06T06:41:07;101587.22;;;7.49;67.64
48630;BME280;34426;52.180;4.462;2023-04-06T06:43:32;101588.88;;;7.56;67.99
48630;BME280;34426;52.180;4.462;2023-04-06T06:45:59;101592.50;;;7.57;67.76
48630;BME280;34426;52.180;4.462;2023-04-06T06:48:24;101589.88;;;7.62;67.96
48630;BME280;34426;52.180;4.462;2023-04-06T06:50:50;101588.28;;;7.73;67.45
48630;BME280;34426;52.180;4.462;2023-04-06T06:53:16;101590.38;;;7.77;68.28
48630;BME280;34426;52.180;4.462;2023-04-06T06:55:41;101588.19;;;7.79;68.13
48630;BME280;34426;52.180;4.462;2023-04-06T06:58:07;101586.84;;;7.82;68.13
48630;BME280;34426;52.180;4.462;2023-04-06T07:00:35;101580.75;;;7.91;68.65
48630;BME280;34426;52.180;4.462;2023-04-06T07:03:02;101584.38;;;7.92;68.26
48630;BME280;34426;52.180;4.462;2023-04-06T07:05:27;101578.59;;;7.93;68.61
48630;BME280;34426;52.180;4.462;2023-04-06T07:07:53;101573.78;;;8.00;67.77
48630;BME280;34426;52.180;4.462;2023-04-06T07:10:18;101578.44;;;8.07;68.61
48630;BME280;34426;52.180;4.462;2023-04-06T07:12:44;101573.00;;;8.12;68.05
48630;BME280;34426;52.180;4.462;2023-04-06T07:15:10;101571.94;;;8.13;69.06
48630;BME280;34426;52.180;4.462;2023-04-06T07:17:35;101568.88;;;8.32;68.29
48630;BME280;34426;52.180;4.462;2023-04-06T07:20:03;101561.66;;;8.25;68.56
48630;BME280;34426;52.180;4.462;2023-04-06T07:22:28;101563.38;;;8.26;69.15
48630;BME280;34426;52.180;4.462;2023-04-06T07:24:54;101557.50;;;8.34;69.81
48630;BME280;34426;52.180;4.462;2023-04-06T07:27:19;101557.63;;;8.39;68.73
48630;BME280;34426;52.180;4.462;2023-04-06T07:29:44;101559.97;;;8.42;69.42
48630;BME280;34426;52.180;4.462;2023-04-06T07:32:12;101555.63;;;8.46;69.44
48630;BME280;34426;52.180;4.462;2023-04-06T07:34:37;101553.53;;;8.42;70.47
48630;BME280;34426;52.180;4.462;2023-04-06T07:37:04;101556.56;;;8.40;71.27
48630;BME280;34426;52.180;4.462;2023-04-06T07:39:33;101554.28;;;8.49;70.67
48630;BME280;34426;52.180;4.462;2023-04-06T07:41:58;101551.88;;;8.52;70.83
48630;BME280;34426;52.180;4.462;2023-04-06T07:44:24;101556.84;;;8.50;71.22
48630;BME280;34426;52.180;4.462;2023-04-06T07:46:49;101552.03;;;8.57;71.30
48630;BME280;34426;52.180;4.462;2023-04-06T07:49:17;101551.06;;;8.63;71.84
48630;BME280;34426;52.180;4.462;2023-04-06T07:51:43;101546.81;;;8.61;71.90
48630;BME280;34426;52.180;4.462;2023-04-06T07:54:09;101549.63;;;8.73;72.09
48630;BME280;34426;52.180;4.462;2023-04-06T07:56:35;101546.22;;;8.71;72.16
48630;BME280;34426;52.180;4.462;2023-04-06T07:59:00;101549.63;;;8.73;73.23
48630;BME280;34426;52.180;4.462;2023-04-06T08:01:27;101546.97;;;8.78;73.17
48630;BME280;34426;52.180;4.462;2023-04-06T08:03:53;101546.47;;;8.81;72.57
48630;BME280;34426;52.180;4.462;2023-04-06T08:06:21;101540.91;;;8.81;73.68
48630;BME280;34426;52.180;4.462;2023-04-06T08:08:46;101548.44;;;8.92;73.69
48630;BME280;34426;52.180;4.462;2023-04-06T08:11:13;101547.59;;;8.91;74.27
48630;BME280;34426;52.180;4.462;2023-04-06T08:13:39;101546.50;;;8.92;74.48
48630;BME280;34426;52.180;4.462;2023-04-06T08:16:05;101552.34;;;8.91;74.73
48630;BME280;34426;52.180;4.462;2023-04-06T08:18:30;101548.44;;;8.92;74.93
48630;BME280;34426;52.180;4.462;2023-04-06T08:20:56;101552.59;;;9.01;75.76
48630;BME280;34426;52.180;4.462;2023-04-06T08:23:21;101546.75;;;9.14;75.29
48630;BME280;34426;52.180;4.462;2023-04-06T08:25:47;101547.97;;;9.18;74.50
48630;BME280;34426;52.180;4.462;2023-04-06T08:28:14;101553.19;;;9.15;74.59
48630;BME280;34426;52.180;4.462;2023-04-06T08:30:40;101545.31;;;9.23;74.72
48630;BME280;34426;52.180;4.462;2023-04-06T08:33:05;101552.47;;;9.19;74.24
48630;BME280;34426;52.180;4.462;2023-04-06T08:35:31;101545.31;;;9.23;74.93
48630;BME280;34426;52.180;4.462;2023-04-06T08:37:56;101549.56;;;9.26;74.80
48630;BME280;34426;52.180;4.462;2023-04-06T08:40:22;101545.94;;;9.25;75.08
48630;BME280;34426;52.180;4.462;2023-04-06T08:42:52;101544.34;;;9.29;75.28
48630;BME280;34426;52.180;4.462;2023-04-06T08:45:21;101539.97;;;9.33;74.50
48630;BME280;34426;52.180;4.462;2023-04-06T08:47:46;101545.56;;;9.33;75.46
48630;BME280;34426;52.180;4.462;2023-04-06T08:50:12;101549.22;;;9.34;75.35
48630;BME280;34426;52.180;4.462;2023-04-06T08:52:38;101544.72;;;9.21;75.47
48630;BME280;34426;52.180;4.462;2023-04-06T08:55:05;101537.31;;;9.27;75.81
48630;BME280;34426;52.180;4.462;2023-04-06T08:57:31;101548.47;;;9.15;76.43
48630;BME280;34426;52.180;4.462;2023-04-06T08:59:57;101549.47;;;9.09;76.78
48630;BME280;34426;52.180;4.462;2023-04-06T09:02:27;101540.59;;;9.00;77.11
48630;BME280;34426;52.180;4.462;2023-04-06T09:04:53;101538.78;;;9.06;77.90
48630;BME280;34426;52.180;4.462;2023-04-06T09:07:19;101544.44;;;9.11;77.32
48630;BME280;34426;52.180;4.462;2023-04-06T09:09:44;101542.53;;;9.23;77.51
48630;BME280;34426;52.180;4.462;2023-04-06T09:12:10;101547.84;;;9.13;77.99
48630;BME280;34426;52.180;4.462;2023-04-06T09:14:36;101539.63;;;9.30;77.18
48630;BME280;34426;52.180;4.462;2023-04-06T09:17:02;101543.88;;;9.32;77.16
48630;BME280;34426;52.180;4.462;2023-04-06T09:19:29;101536.09;;;9.34;75.77
48630;BME280;34426;52.180;4.462;2023-04-06T09:22:01;101538.50;;;9.19;74.35
48630;BME280;34426;52.180;4.462;2023-04-06T09:24:27;101536.72;;;9.02;75.08
48630;BME280;34426;52.180;4.462;2023-04-06T09:26:52;101538.03;;;8.99;75.22
48630;BME280;34426;52.180;4.462;2023-04-06T09:29:24;101544.34;;;9.06;75.90
48630;BME280;34426;52.180;4.462;2023-04-06T09:31:52;101539.72;;;9.12;75.93
48630;BME280;34426;52.180;4.462;2023-04-06T09:34:21;101537.56;;;9.02;76.35
48630;BME280;34426;52.180;4.462;2023-04-06T09:36:48;101542.63;;;8.93;76.40
48630;BME280;34426;52.180;4.462;2023-04-06T09:39:13;101536.41;;;8.80;76.80
48630;BME280;34426;52.180;4.462;2023-04-06T09:41:39;101530.22;;;8.78;77.44
48630;BME280;34426;52.180;4.462;2023-04-06T09:44:06;101533.03;;;8.89;78.56
48630;BME280;34426;52.180;4.462;2023-04-06T09:46:32;101529.06;;;8.97;77.76
48630;BME280;34426;52.180;4.462;2023-04-06T09:48:59;101524.91;;;8.88;78.35
48630;BME280;34426;52.180;4.462;2023-04-06T09:51:26;101520.94;;;9.07;78.68
48630;BME280;34426;52.180;4.462;2023-04-06T09:53:56;101526.75;;;9.06;78.43
48630;BME280;34426;52.180;4.462;2023-04-06T09:56:24;101518.38;;;8.94;78.06
48630;BME280;34426;52.180;4.462;2023-04-06T09:58:55;101531.50;;;9.05;79.12
48630;BME280;34426;52.180;4.462;2023-04-06T10:01:26;101517.38;;;8.77;78.44
48630;BME280;34426;52.180;4.462;2023-04-06T10:03:56;101527.06;;;8.74;79.97
48630;BME280;34426;52.180;4.462;2023-04-06T10:06:28;101518.59;;;8.81;79.76
48630;BME280;34426;52.180;4.462;2023-04-06T10:08:57;101510.47;;;8.79;80.36
48630;BME280;34426;52.180;4.462;2023-04-06T10:11:22;101517.97;;;8.79;80.56
48630;BME280;34426;52.180;4.462;2023-04-06T10:13:48;101522.47;;;8.80;80.81
48630;BME280;34426;52.180;4.462;2023-04-06T10:16:15;101508.28;;;8.81;81.55
48630;BME280;34426;52.180;4.462;2023-04-06T10:18:44;101509.13;;;8.82;80.07
48630;BME280;34426;52.180;4.462;2023-04-06T10:21:15;101504.78;;;8.86;80.28
48630;BME280;34426;52.180;4.462;2023-04-06T10:23:45;101500.16;;;8.80;81.82
48630;BME280;34426;52.180;4.462;2023-04-06T10:26:14;101498.59;;;8.95;80.69
48630;BME280;34426;52.180;4.462;2023-04-06T10:28:45;101496.53;;;8.91;81.22
48630;BME280;34426;52.180;4.462;2023-04-06T10:31:11;101494.59;;;9.03;80.81
48630;BME280;34426;52.180;4.462;2023-04-06T10:33:36;101498.97;;;8.99;82.09
48630;BME280;34426;52.180;4.462;2023-04-06T10:36:12;101493.16;;;9.00;81.86
48630;BME280;34426;52.180;4.462;2023-04-06T10:38:38;101496.19;;;8.99;81.83
48630;BME280;34426;52.180;4.462;2023-04-06T10:41:05;101483.56;;;8.96;82.10
48630;BME280;34426;52.180;4.462;2023-04-06T10:43:33;101487.06;;;8.92;82.63
48630;BME280;34426;52.180;4.462;2023-04-06T10:46:00;101483.66;;;9.13;81.80
48630;BME280;34426;52.180;4.462;2023-04-06T10:48:36;101473.50;;;9.07;81.27
48630;BME280;34426;52.180;4.462;2023-04-06T10:51:08;101485.75;;;9.06;81.78
48630;BME280;34426;52.180;4.462;2023-04-06T10:53:34;101469.63;;;9.08;81.91
48630;BME280;34426;52.180;4.462;2023-04-06T10:55:59;101479.56;;;9.04;82.12
48630;BME280;34426;52.180;4.462;2023-04-06T10:58:27;101469.09;;;9.11;81.79
48630;BME280;34426;52.180;4.462;2023-04-06T11:00:54;101462.09;;;9.09;81.40
48630;BME280;34426;52.180;4.462;2023-04-06T11:03:20;101464.38;;;8.88;82.79
48630;BME280;34426;52.180;4.462;2023-04-06T11:05:46;101467.41;;;8.87;82.46
48630;BME280;34426;52.180;4.462;2023-04-06T11:08:22;101458.69;;;8.95;82.96
48630;BME280;34426;52.180;4.462;2023-04-06T11:10:47;101468.63;;;9.14;82.45
48630;BME280;34426;52.180;4.462;2023-04-06T11:13:13;101463.78;;;9.10;83.08
48630;BME280;34426;52.180;4.462;2023-04-06T11:15:38;101459.78;;;9.06;83.70
48630;BME280;34426;52.180;4.462;2023-04-06T11:18:06;101454.56;;;9.09;83.28
48630;BME280;34426;52.180;4.462;2023-04-06T11:20:32;101457.00;;;8.94;82.17
48630;BME280;34426;52.180;4.462;2023-04-06T11:22:57;101461.09;;;8.80;84.10
48630;BME280;34426;52.180;4.462;2023-04-06T11:25:23;101457.97;;;8.88;83.50
48630;BME280;34426;52.180;4.462;2023-04-06T11:27:48;101457.00;;;8.94;84.84
48630;BME280;34426;52.180;4.462;2023-04-06T11:30:14;101448.03;;;8.92;83.41
48630;BME280;34426;52.180;4.462;2023-04-06T11:32:41;101440.63;;;8.97;84.10
48630;BME280;34426;52.180;4.462;2023-04-06T11:35:10;101447.91;;;8.98;84.29
48630;BME280;34426;52.180;4.462;2023-04-06T11:37:36;101439.16;;;8.95;84.41
48630;BME280;34426;52.180;4.462;2023-04-06T11:40:01;101434.78;;;8.87;84.40
48630;BME280;34426;52.180;4.462;2023-04-06T11:42:28;101438.31;;;8.83;83.39
48630;BME280;34426;52.180;4.462;2023-04-06T11:44:55;101442.19;;;8.82;83.98
48630;BME280;34426;52.180;4.462;2023-04-06T11:47:27;101430.78;;;8.95;84.48
48630;BME280;34426;52.180;4.462;2023-04-06T11:49:53;101437.94;;;8.91;84.14
48630;BME280;34426;52.180;4.462;2023-04-06T11:52:21;101432.75;;;9.06;84.30
48630;BME280;34426;52.180;4.462;2023-04-06T11:54:48;101424.38;;;9.06;83.27
48630;BME280;34426;52.180;4.462;2023-04-06T11:57:14;101428.84;;;9.07;85.07
48630;BME280;34426;52.180;4.462;2023-04-06T11:59:43;101425.69;;;9.04;85.07
48630;BME280;34426;52.180;4.462;2023-04-06T12:02:09;101428.50;;;9.04;84.62
48630;BME280;34426;52.180;4.462;2023-04-06T12:04:35;101423.03;;;8.97;84.58
48630;BME280;34426;52.180;4.462;2023-04-06T12:07:01;101421.94;;;9.10;84.51
48630;BME280;34426;52.180;4.462;2023-04-06T12:09:28;101423.34;;;9.12;84.77
48630;BME280;34426;52.180;4.462;2023-04-06T12:11:53;101427.72;;;9.20;84.49
48630;BME280;34426;52.180;4.462;2023-04-06T12:14:19;101417.31;;;9.04;85.33
48630;BME280;34426;52.180;4.462;2023-04-06T12:16:44;101412.31;;;9.17;84.83
48630;BME280;34426;52.180;4.462;2023-04-06T12:19:10;101414.97;;;9.12;84.73
48630;BME280;34426;52.180;4.462;2023-04-06T12:21:36;101415.50;;;9.09;85.58
48630;BME280;34426;52.180;4.462;2023-04-06T12:24:01;101411.88;;;8.97;85.39
48630;BME280;34426;52.180;4.462;2023-04-06T12:26:29;101415.63;;;8.91;85.74
48630;BME280;34426;52.180;4.462;2023-04-06T12:28:54;101408.00;;;8.98;85.09
48630;BME280;34426;52.180;4.462;2023-04-06T12:31:21;101413.69;;;8.91;85.82
48630;BME280;34426;52.180;4.462;2023-04-06T12:33:48;101415.03;;;8.89;85.80
48630;BME280;34426;52.180;4.462;2023-04-06T12:36:14;101408.09;;;8.80;86.01
48630;BME280;34426;52.180;4.462;2023-04-06T12:38:39;101411.63;;;8.87;85.79
48630;BME280;34426;52.180;4.462;2023-04-06T12:41:06;101405.56;;;8.90;86.65
48630;BME280;34426;52.180;4.462;2023-04-06T12:43:33;101412.13;;;8.84;86.60
48630;BME280;34426;52.180;4.462;2023-04-06T12:45:59;101409.31;;;8.84;86.95
48630;BME280;34426;52.180;4.462;2023-04-06T12:48:24;101405.19;;;8.86;86.75
48630;BME280;34426;52.180;4.462;2023-04-06T12:50:54;101409.56;;;8.94;86.52
48630;BME280;34426;52.180;4.462;2023-04-06T12:53:19;101391.00;;;8.88;86.11